sensor_id;sensor_type;location;lat;lon;timestamp;P1;durP1;ratioP1;P2;durP2;ratioP2
35442;SDS011;21561;55.654;37.592;2022-07-25T00:00:23;18.05;;;6.80;;
35442;SDS011;21561;55.654;37.592;2022-07-25T00:02:50;14.18;;;5.55;;
35442;SDS011;21561;55.654;37.592;2022-07-25T00:05:17;14.93;;;5.82;;
35442;SDS011;21561;55.654;37.592;2022-07-25T00:07:43;12.05;;;5.20;;
35442;SDS011;21561;55.654;37.592;2022-07-25T00:10:10;16.00;;;6.07;;
35442;SDS011;21561;55.654;37.592;2022-07-25T00:12:38;15.18;;;5.97;;
35442;SDS011;21561;55.654;37.592;2022-07-25T00:15:05;16.20;;;5.80;;
35442;SDS011;21561;55.654;37.592;2022-07-25T00:17:32;12.45;;;5.20;;
35442;SDS011;21561;55.654;37.592;2022-07-25T00:20:00;15.38;;;5.65;;
35442;SDS011;21561;55.654;37.592;2022-07-25T00:22:29;13.80;;;5.47;;
35442;SDS011;21561;55.654;37.592;2022-07-25T00:24:56;12.13;;;5.13;;
35442;SDS011;21561;55.654;37.592;2022-07-25T00:27:24;13.15;;;5.65;;
35442;SDS011;21561;55.654;37.592;2022-07-25T00:29:51;13.75;;;5.50;;
35442;SDS011;21561;55.654;37.592;2022-07-25T00:32:17;14.45;;;6.13;;
35442;SDS011;21561;55.654;37.592;2022-07-25T00:34:44;14.50;;;6.03;;
35442;SDS011;21561;55.654;37.592;2022-07-25T00:37:11;15.25;;;5.90;;
35442;SDS011;21561;55.654;37.592;2022-07-25T00:39:38;14.32;;;5.90;;
35442;SDS011;21561;55.654;37.592;2022-07-25T00:42:05;16.05;;;6.10;;
35442;SDS011;21561;55.654;37.592;2022-07-25T00:44:32;14.65;;;6.03;;
35442;SDS011;21561;55.654;37.592;2022-07-25T00:46:59;13.02;;;5.50;;
35442;SDS011;21561;55.654;37.592;2022-07-25T00:49:26;17.85;;;6.70;;
35442;SDS011;21561;55.654;37.592;2022-07-25T00:51:54;16.08;;;6.28;;
35442;SDS011;21561;55.654;37.592;2022-07-25T00:54:21;16.35;;;5.57;;
35442;SDS011;21561;55.654;37.592;2022-07-25T00:56:48;14.43;;;6.25;;
35442;SDS011;21561;55.654;37.592;2022-07-25T00:59:16;14.23;;;6.22;;
35442;SDS011;21561;55.654;37.592;2022-07-25T01:01:43;14.13;;;5.95;;
35442;SDS011;21561;55.654;37.592;2022-07-25T01:04:14;15.27;;;6.10;;
35442;SDS011;21561;55.654;37.592;2022-07-25T01:06:41;13.50;;;5.80;;
35442;SDS011;21561;55.654;37.592;2022-07-25T01:09:08;14.82;;;5.93;;
35442;SDS011;21561;55.654;37.592;2022-07-25T01:11:36;15.02;;;5.55;;
35442;SDS011;21561;55.654;37.592;2022-07-25T01:14:03;13.98;;;5.40;;
35442;SDS011;21561;55.654;37.592;2022-07-25T01:16:31;15.95;;;5.45;;
35442;SDS011;21561;55.654;37.592;2022-07-25T01:18:57;14.07;;;5.93;;
35442;SDS011;21561;55.654;37.592;2022-07-25T01:21:25;14.30;;;5.18;;
35442;SDS011;21561;55.654;37.592;2022-07-25T01:23:52;15.90;;;6.38;;
35442;SDS011;21561;55.654;37.592;2022-07-25T01:26:19;13.10;;;5.47;;
35442;SDS011;21561;55.654;37.592;2022-07-25T01:28:46;14.27;;;6.03;;
35442;SDS011;21561;55.654;37.592;2022-07-25T01:31:13;14.77;;;5.78;;
35442;SDS011;21561;55.654;37.592;2022-07-25T01:33:40;14.02;;;5.40;;
35442;SDS011;21561;55.654;37.592;2022-07-25T01:36:07;13.75;;;5.85;;
35442;SDS011;21561;55.654;37.592;2022-07-25T01:38:34;18.33;;;6.43;;
35442;SDS011;21561;55.654;37.592;2022-07-25T01:41:01;15.35;;;6.30;;
35442;SDS011;21561;55.654;37.592;2022-07-25T01:43:28;13.02;;;5.60;;
35442;SDS011;21561;55.654;37.592;2022-07-25T01:45:55;15.90;;;6.40;;
35442;SDS011;21561;55.654;37.592;2022-07-25T01:48:22;19.17;;;6.38;;
35442;SDS011;21561;55.654;37.592;2022-07-25T01:50:50;16.08;;;5.90;;
35442;SDS011;21561;55.654;37.592;2022-07-25T01:53:17;14.30;;;6.32;;
35442;SDS011;21561;55.654;37.592;2022-07-25T01:55:45;14.50;;;6.25;;
35442;SDS011;21561;55.654;37.592;2022-07-25T01:58:12;14.93;;;6.20;;
35442;SDS011;21561;55.654;37.592;2022-07-25T02:00:40;14.10;;;5.78;;
35442;SDS011;21561;55.654;37.592;2022-07-25T02:03:07;16.67;;;5.78;;
35442;SDS011;21561;55.654;37.592;2022-07-25T02:05:52;18.42;;;6.10;;
35442;SDS011;21561;55.654;37.592;2022-07-25T02:08:19;14.30;;;6.18;;
35442;SDS011;21561;55.654;37.592;2022-07-25T02:10:46;16.70;;;5.97;;
35442;SDS011;21561;55.654;37.592;2022-07-25T02:13:13;15.30;;;6.25;;
35442;SDS011;21561;55.654;37.592;2022-07-25T02:16:00;13.70;;;5.55;;
35442;SDS011;21561;55.654;37.592;2022-07-25T02:18:27;16.02;;;5.85;;
35442;SDS011;21561;55.654;37.592;2022-07-25T02:20:54;14.07;;;6.07;;
35442;SDS011;21561;55.654;37.592;2022-07-25T02:23:21;13.32;;;5.60;;
35442;SDS011;21561;55.654;37.592;2022-07-25T02:25:48;14.90;;;5.30;;
35442;SDS011;21561;55.654;37.592;2022-07-25T02:28:15;15.48;;;5.32;;
35442;SDS011;21561;55.654;37.592;2022-07-25T02:30:42;15.80;;;5.70;;
35442;SDS011;21561;55.654;37.592;2022-07-25T02:33:09;13.60;;;5.25;;
35442;SDS011;21561;55.654;37.592;2022-07-25T02:35:36;14.85;;;5.50;;
35442;SDS011;21561;55.654;37.592;2022-07-25T02:38:03;19.20;;;6.15;;
35442;SDS011;21561;55.654;37.592;2022-07-25T02:40:30;17.02;;;6.00;;
35442;SDS011;21561;55.654;37.592;2022-07-25T02:42:57;13.70;;;5.60;;
35442;SDS011;21561;55.654;37.592;2022-07-25T02:45:24;17.08;;;5.53;;
35442;SDS011;21561;55.654;37.592;2022-07-25T02:47:51;16.33;;;5.32;;
35442;SDS011;21561;55.654;37.592;2022-07-25T02:50:18;13.90;;;5.40;;
35442;SDS011;21561;55.654;37.592;2022-07-25T02:52:45;13.32;;;5.82;;
35442;SDS011;21561;55.654;37.592;2022-07-25T02:55:12;14.50;;;5.47;;
35442;SDS011;21561;55.654;37.592;2022-07-25T02:57:39;17.10;;;6.15;;
35442;SDS011;21561;55.654;37.592;2022-07-25T03:00:06;15.60;;;6.00;;
35442;SDS011;21561;55.654;37.592;2022-07-25T03:02:33;14.07;;;5.60;;
35442;SDS011;21561;55.654;37.592;2022-07-25T03:05:00;15.48;;;5.80;;
35442;SDS011;21561;55.654;37.592;2022-07-25T03:07:28;12.40;;;5.07;;
35442;SDS011;21561;55.654;37.592;2022-07-25T03:09:55;16.48;;;5.65;;
35442;SDS011;21561;55.654;37.592;2022-07-25T03:12:22;13.80;;;5.50;;
35442;SDS011;21561;55.654;37.592;2022-07-25T03:14:49;14.35;;;5.90;;
35442;SDS011;21561;55.654;37.592;2022-07-25T03:17:16;16.70;;;6.20;;
35442;SDS011;21561;55.654;37.592;2022-07-25T03:19:43;15.60;;;6.00;;
35442;SDS011;21561;55.654;37.592;2022-07-25T03:22:10;13.85;;;5.93;;
35442;SDS011;21561;55.654;37.592;2022-07-25T03:24:37;15.30;;;5.88;;
35442;SDS011;21561;55.654;37.592;2022-07-25T03:27:04;14.20;;;5.40;;
35442;SDS011;21561;55.654;37.592;2022-07-25T03:29:31;14.23;;;5.97;;
35442;SDS011;21561;55.654;37.592;2022-07-25T03:31:58;13.95;;;5.45;;
35442;SDS011;21561;55.654;37.592;2022-07-25T03:34:26;14.48;;;5.75;;
35442;SDS011;21561;55.654;37.592;2022-07-25T03:36:53;14.40;;;5.75;;
35442;SDS011;21561;55.654;37.592;2022-07-25T03:39:20;12.65;;;5.53;;
35442;SDS011;21561;55.654;37.592;2022-07-25T03:41:47;13.77;;;5.50;;
35442;SDS011;21561;55.654;37.592;2022-07-25T03:44:14;13.85;;;6.07;;
35442;SDS011;21561;55.654;37.592;2022-07-25T03:46:41;14.35;;;5.82;;
35442;SDS011;21561;55.654;37.592;2022-07-25T03:49:07;15.68;;;5.65;;
35442;SDS011;21561;55.654;37.592;2022-07-25T03:51:34;13.13;;;5.45;;
35442;SDS011;21561;55.654;37.592;2022-07-25T03:54:01;14.32;;;5.78;;
35442;SDS011;21561;55.654;37.592;2022-07-25T03:56:39;15.15;;;6.28;;
35442;SDS011;21561;55.654;37.592;2022-07-25T03:59:10;16.08;;;5.50;;
35442;SDS011;21561;55.654;37.592;2022-07-25T04:01:42;16.55;;;5.60;;
35442;SDS011;21561;55.654;37.592;2022-07-25T04:04:11;14.70;;;5.40;;
35442;SDS011;21561;55.654;37.592;2022-07-25T04:06:38;14.82;;;6.07;;
35442;SDS011;21561;55.654;37.592;2022-07-25T04:09:06;13.23;;;5.82;;
35442;SDS011;21561;55.654;37.592;2022-07-25T04:11:34;13.68;;;6.00;;
35442;SDS011;21561;55.654;37.592;2022-07-25T04:14:08;13.45;;;5.82;;
35442;SDS011;21561;55.654;37.592;2022-07-25T04:16:35;16.73;;;5.70;;
35442;SDS011;21561;55.654;37.592;2022-07-25T04:19:04;14.02;;;5.75;;
35442;SDS011;21561;55.654;37.592;2022-07-25T04:21:31;14.20;;;5.90;;
35442;SDS011;21561;55.654;37.592;2022-07-25T04:23:59;15.23;;;5.88;;
35442;SDS011;21561;55.654;37.592;2022-07-25T04:26:26;14.63;;;6.22;;
35442;SDS011;21561;55.654;37.592;2022-07-25T04:28:52;15.63;;;5.70;;
35442;SDS011;21561;55.654;37.592;2022-07-25T04:31:19;14.40;;;5.70;;
35442;SDS011;21561;55.654;37.592;2022-07-25T04:33:46;17.42;;;6.05;;
35442;SDS011;21561;55.654;37.592;2022-07-25T04:36:13;14.88;;;5.82;;
35442;SDS011;21561;55.654;37.592;2022-07-25T04:38:40;15.45;;;6.43;;
35442;SDS011;21561;55.654;37.592;2022-07-25T04:41:07;18.88;;;6.45;;
35442;SDS011;21561;55.654;37.592;2022-07-25T04:43:34;17.60;;;6.40;;
35442;SDS011;21561;55.654;37.592;2022-07-25T04:46:01;16.92;;;6.65;;
35442;SDS011;21561;55.654;37.592;2022-07-25T04:48:28;15.07;;;6.32;;
35442;SDS011;21561;55.654;37.592;2022-07-25T04:50:55;13.18;;;5.70;;
35442;SDS011;21561;55.654;37.592;2022-07-25T04:53:22;15.68;;;5.80;;
35442;SDS011;21561;55.654;37.592;2022-07-25T04:55:48;15.93;;;6.40;;
35442;SDS011;21561;55.654;37.592;2022-07-25T04:58:15;14.45;;;6.22;;
35442;SDS011;21561;55.654;37.592;2022-07-25T05:00:42;16.33;;;6.68;;
35442;SDS011;21561;55.654;37.592;2022-07-25T05:03:09;16.10;;;6.35;;
35442;SDS011;21561;55.654;37.592;2022-07-25T05:05:36;14.05;;;6.60;;
35442;SDS011;21561;55.654;37.592;2022-07-25T05:08:03;14.70;;;6.20;;
35442;SDS011;21561;55.654;37.592;2022-07-25T05:10:30;12.82;;;5.95;;
35442;SDS011;21561;55.654;37.592;2022-07-25T05:12:57;16.65;;;6.78;;
35442;SDS011;21561;55.654;37.592;2022-07-25T05:15:24;14.55;;;6.30;;
35442;SDS011;21561;55.654;37.592;2022-07-25T05:17:51;15.70;;;6.60;;
35442;SDS011;21561;55.654;37.592;2022-07-25T05:20:18;16.73;;;6.80;;
35442;SDS011;21561;55.654;37.592;2022-07-25T05:22:45;17.33;;;6.53;;
35442;SDS011;21561;55.654;37.592;2022-07-25T05:25:12;13.20;;;5.97;;
35442;SDS011;21561;55.654;37.592;2022-07-25T05:27:39;17.40;;;6.53;;
35442;SDS011;21561;55.654;37.592;2022-07-25T05:30:07;13.60;;;6.45;;
35442;SDS011;21561;55.654;37.592;2022-07-25T05:32:36;17.52;;;6.70;;
35442;SDS011;21561;55.654;37.592;2022-07-25T05:35:04;15.93;;;6.38;;
35442;SDS011;21561;55.654;37.592;2022-07-25T05:37:33;14.85;;;6.47;;
35442;SDS011;21561;55.654;37.592;2022-07-25T05:40:01;14.52;;;6.45;;
35442;SDS011;21561;55.654;37.592;2022-07-25T05:42:29;16.38;;;6.80;;
35442;SDS011;21561;55.654;37.592;2022-07-25T05:44:56;14.13;;;5.97;;
35442;SDS011;21561;55.654;37.592;2022-07-25T05:47:23;15.20;;;6.30;;
35442;SDS011;21561;55.654;37.592;2022-07-25T05:49:50;15.25;;;6.13;;
35442;SDS011;21561;55.654;37.592;2022-07-25T05:52:17;16.50;;;6.38;;
35442;SDS011;21561;55.654;37.592;2022-07-25T05:54:44;12.98;;;5.63;;
35442;SDS011;21561;55.654;37.592;2022-07-25T05:57:11;14.40;;;6.63;;
35442;SDS011;21561;55.654;37.592;2022-07-25T05:59:38;16.73;;;5.88;;
35442;SDS011;21561;55.654;37.592;2022-07-25T06:02:04;14.30;;;6.30;;
35442;SDS011;21561;55.654;37.592;2022-07-25T06:04:32;13.10;;;5.13;;
35442;SDS011;21561;55.654;37.592;2022-07-25T06:06:59;11.52;;;4.88;;
35442;SDS011;21561;55.654;37.592;2022-07-25T06:09:25;12.13;;;5.25;;
35442;SDS011;21561;55.654;37.592;2022-07-25T06:11:52;14.55;;;5.80;;
35442;SDS011;21561;55.654;37.592;2022-07-25T06:14:26;13.23;;;5.57;;
35442;SDS011;21561;55.654;37.592;2022-07-25T06:16:54;13.27;;;5.38;;
35442;SDS011;21561;55.654;37.592;2022-07-25T06:19:22;16.17;;;5.80;;
35442;SDS011;21561;55.654;37.592;2022-07-25T06:21:49;14.73;;;5.57;;
35442;SDS011;21561;55.654;37.592;2022-07-25T06:24:15;12.52;;;5.30;;
35442;SDS011;21561;55.654;37.592;2022-07-25T06:26:42;14.88;;;6.22;;
35442;SDS011;21561;55.654;37.592;2022-07-25T06:29:10;17.33;;;5.70;;
35442;SDS011;21561;55.654;37.592;2022-07-25T06:31:37;14.40;;;6.03;;
35442;SDS011;21561;55.654;37.592;2022-07-25T06:34:04;13.90;;;6.13;;
35442;SDS011;21561;55.654;37.592;2022-07-25T06:36:35;14.77;;;5.90;;
35442;SDS011;21561;55.654;37.592;2022-07-25T06:39:02;13.63;;;5.63;;
35442;SDS011;21561;55.654;37.592;2022-07-25T06:41:29;15.35;;;5.80;;
35442;SDS011;21561;55.654;37.592;2022-07-25T06:43:56;13.55;;;5.80;;
35442;SDS011;21561;55.654;37.592;2022-07-25T06:46:23;17.45;;;6.35;;
35442;SDS011;21561;55.654;37.592;2022-07-25T06:48:52;16.42;;;5.93;;
35442;SDS011;21561;55.654;37.592;2022-07-25T06:51:18;15.02;;;5.95;;
35442;SDS011;21561;55.654;37.592;2022-07-25T06:53:48;16.30;;;6.65;;
35442;SDS011;21561;55.654;37.592;2022-07-25T06:56:15;14.50;;;5.93;;
35442;SDS011;21561;55.654;37.592;2022-07-25T06:58:43;18.13;;;6.45;;
35442;SDS011;21561;55.654;37.592;2022-07-25T07:01:10;15.30;;;6.32;;
35442;SDS011;21561;55.654;37.592;2022-07-25T07:03:37;14.35;;;5.90;;
35442;SDS011;21561;55.654;37.592;2022-07-25T07:06:06;17.50;;;6.68;;
35442;SDS011;21561;55.654;37.592;2022-07-25T07:08:34;16.50;;;7.03;;
35442;SDS011;21561;55.654;37.592;2022-07-25T07:11:02;18.65;;;6.88;;
35442;SDS011;21561;55.654;37.592;2022-07-25T07:13:29;17.88;;;6.80;;
35442;SDS011;21561;55.654;37.592;2022-07-25T07:15:56;18.90;;;6.82;;
35442;SDS011;21561;55.654;37.592;2022-07-25T07:18:23;17.60;;;7.13;;
35442;SDS011;21561;55.654;37.592;2022-07-25T07:20:50;18.15;;;6.53;;
35442;SDS011;21561;55.654;37.592;2022-07-25T07:23:17;16.52;;;6.72;;
35442;SDS011;21561;55.654;37.592;2022-07-25T07:25:45;16.13;;;7.18;;
35442;SDS011;21561;55.654;37.592;2022-07-25T07:28:13;14.43;;;6.30;;
35442;SDS011;21561;55.654;37.592;2022-07-25T07:30:41;15.63;;;6.60;;
35442;SDS011;21561;55.654;37.592;2022-07-25T07:33:28;15.88;;;6.75;;
35442;SDS011;21561;55.654;37.592;2022-07-25T07:35:55;17.35;;;7.20;;
35442;SDS011;21561;55.654;37.592;2022-07-25T07:38:23;15.50;;;6.57;;
35442;SDS011;21561;55.654;37.592;2022-07-25T07:40:50;16.55;;;6.40;;
35442;SDS011;21561;55.654;37.592;2022-07-25T07:43:17;17.75;;;6.72;;
35442;SDS011;21561;55.654;37.592;2022-07-25T07:45:45;15.23;;;6.18;;
35442;SDS011;21561;55.654;37.592;2022-07-25T07:48:11;15.88;;;6.40;;
35442;SDS011;21561;55.654;37.592;2022-07-25T07:50:38;15.27;;;6.55;;
35442;SDS011;21561;55.654;37.592;2022-07-25T07:53:06;14.77;;;6.30;;
35442;SDS011;21561;55.654;37.592;2022-07-25T07:55:33;14.95;;;6.45;;
35442;SDS011;21561;55.654;37.592;2022-07-25T07:58:16;17.13;;;6.78;;
35442;SDS011;21561;55.654;37.592;2022-07-25T08:00:44;17.08;;;6.78;;
35442;SDS011;21561;55.654;37.592;2022-07-25T08:03:16;20.35;;;7.05;;
35442;SDS011;21561;55.654;37.592;2022-07-25T08:05:46;15.75;;;6.82;;
35442;SDS011;21561;55.654;37.592;2022-07-25T08:08:14;14.38;;;6.72;;
35442;SDS011;21561;55.654;37.592;2022-07-25T08:10:46;15.85;;;6.60;;
35442;SDS011;21561;55.654;37.592;2022-07-25T08:13:15;15.45;;;5.78;;
35442;SDS011;21561;55.654;37.592;2022-07-25T08:15:44;14.65;;;6.00;;
35442;SDS011;21561;55.654;37.592;2022-07-25T08:18:13;15.93;;;5.70;;
35442;SDS011;21561;55.654;37.592;2022-07-25T08:20:46;15.40;;;5.43;;
35442;SDS011;21561;55.654;37.592;2022-07-25T08:23:14;13.02;;;5.60;;
35442;SDS011;21561;55.654;37.592;2022-07-25T08:25:42;13.80;;;5.97;;
35442;SDS011;21561;55.654;37.592;2022-07-25T08:28:10;13.05;;;6.00;;
35442;SDS011;21561;55.654;37.592;2022-07-25T08:30:38;13.43;;;5.70;;
35442;SDS011;21561;55.654;37.592;2022-07-25T08:33:07;13.88;;;6.10;;
35442;SDS011;21561;55.654;37.592;2022-07-25T08:35:36;13.98;;;5.80;;
35442;SDS011;21561;55.654;37.592;2022-07-25T08:38:03;14.23;;;5.90;;
35442;SDS011;21561;55.654;37.592;2022-07-25T08:40:31;13.75;;;5.75;;
35442;SDS011;21561;55.654;37.592;2022-07-25T08:43:01;14.63;;;5.30;;
35442;SDS011;21561;55.654;37.592;2022-07-25T08:45:30;14.52;;;5.78;;
35442;SDS011;21561;55.654;37.592;2022-07-25T08:47:58;17.33;;;5.40;;
35442;SDS011;21561;55.654;37.592;2022-07-25T08:50:27;15.45;;;6.05;;
35442;SDS011;21561;55.654;37.592;2022-07-25T08:52:55;13.13;;;6.18;;
35442;SDS011;21561;55.654;37.592;2022-07-25T08:55:42;14.13;;;6.40;;
35442;SDS011;21561;55.654;37.592;2022-07-25T08:58:11;15.50;;;5.95;;
35442;SDS011;21561;55.654;37.592;2022-07-25T09:00:40;12.82;;;5.43;;
35442;SDS011;21561;55.654;37.592;2022-07-25T09:03:07;15.38;;;5.72;;
35442;SDS011;21561;55.654;37.592;2022-07-25T09:05:35;13.88;;;6.60;;
35442;SDS011;21561;55.654;37.592;2022-07-25T09:08:10;14.57;;;6.47;;
35442;SDS011;21561;55.654;37.592;2022-07-25T09:10:38;16.73;;;6.38;;
35442;SDS011;21561;55.654;37.592;2022-07-25T09:13:11;13.40;;;5.88;;
35442;SDS011;21561;55.654;37.592;2022-07-25T09:15:44;15.38;;;5.80;;
35442;SDS011;21561;55.654;37.592;2022-07-25T09:18:15;13.80;;;5.60;;
35442;SDS011;21561;55.654;37.592;2022-07-25T09:20:45;18.55;;;5.47;;
35442;SDS011;21561;55.654;37.592;2022-07-25T09:23:30;12.18;;;5.53;;
35442;SDS011;21561;55.654;37.592;2022-07-25T09:26:01;13.52;;;5.80;;
35442;SDS011;21561;55.654;37.592;2022-07-25T09:28:45;12.50;;;5.28;;
35442;SDS011;21561;55.654;37.592;2022-07-25T09:31:14;12.15;;;5.35;;
35442;SDS011;21561;55.654;37.592;2022-07-25T09:33:52;12.15;;;5.93;;
35442;SDS011;21561;55.654;37.592;2022-07-25T09:36:25;17.38;;;6.57;;
35442;SDS011;21561;55.654;37.592;2022-07-25T09:38:56;14.88;;;5.90;;
35442;SDS011;21561;55.654;37.592;2022-07-25T09:41:36;12.95;;;5.85;;
35442;SDS011;21561;55.654;37.592;2022-07-25T09:44:17;14.25;;;6.60;;
35442;SDS011;21561;55.654;37.592;2022-07-25T09:46:45;16.58;;;6.35;;
35442;SDS011;21561;55.654;37.592;2022-07-25T09:49:13;16.92;;;6.25;;
35442;SDS011;21561;55.654;37.592;2022-07-25T09:51:40;14.60;;;6.60;;
35442;SDS011;21561;55.654;37.592;2022-07-25T09:54:08;16.33;;;6.28;;
35442;SDS011;21561;55.654;37.592;2022-07-25T09:56:35;14.82;;;6.35;;
35442;SDS011;21561;55.654;37.592;2022-07-25T09:59:03;17.67;;;7.43;;
35442;SDS011;21561;55.654;37.592;2022-07-25T10:01:34;15.77;;;6.60;;
35442;SDS011;21561;55.654;37.592;2022-07-25T10:04:25;14.95;;;6.40;;
35442;SDS011;21561;55.654;37.592;2022-07-25T10:07:07;15.40;;;6.13;;
35442;SDS011;21561;55.654;37.592;2022-07-25T10:12:14;18.88;;;6.35;;
35442;SDS011;21561;55.654;37.592;2022-07-25T10:15:04;15.30;;;6.38;;
35442;SDS011;21561;55.654;37.592;2022-07-25T10:17:37;15.88;;;6.75;;
35442;SDS011;21561;55.654;37.592;2022-07-25T10:20:06;13.77;;;6.57;;
35442;SDS011;21561;55.654;37.592;2022-07-25T10:22:36;13.85;;;6.53;;
35442;SDS011;21561;55.654;37.592;2022-07-25T10:25:24;14.77;;;6.82;;
35442;SDS011;21561;55.654;37.592;2022-07-25T10:27:53;15.13;;;7.05;;
35442;SDS011;21561;55.654;37.592;2022-07-25T10:30:36;15.43;;;7.38;;
35442;SDS011;21561;55.654;37.592;2022-07-25T10:33:15;15.55;;;7.32;;
35442;SDS011;21561;55.654;37.592;2022-07-25T10:35:44;14.95;;;7.10;;
35442;SDS011;21561;55.654;37.592;2022-07-25T10:38:11;14.23;;;7.35;;
35442;SDS011;21561;55.654;37.592;2022-07-25T10:40:40;14.57;;;7.25;;
35442;SDS011;21561;55.654;37.592;2022-07-25T10:43:12;12.77;;;6.95;;
35442;SDS011;21561;55.654;37.592;2022-07-25T10:45:50;16.45;;;7.35;;
35442;SDS011;21561;55.654;37.592;2022-07-25T10:48:20;15.75;;;7.20;;
35442;SDS011;21561;55.654;37.592;2022-07-25T10:50:50;15.98;;;7.88;;
35442;SDS011;21561;55.654;37.592;2022-07-25T10:56:04;14.50;;;7.82;;
35442;SDS011;21561;55.654;37.592;2022-07-25T10:58:52;16.73;;;7.43;;
35442;SDS011;21561;55.654;37.592;2022-07-25T11:03:50;14.23;;;7.13;;
35442;SDS011;21561;55.654;37.592;2022-07-25T11:06:35;14.38;;;6.80;;
35442;SDS011;21561;55.654;37.592;2022-07-25T11:09:12;15.27;;;7.18;;
35442;SDS011;21561;55.654;37.592;2022-07-25T11:11:54;15.10;;;6.65;;
35442;SDS011;21561;55.654;37.592;2022-07-25T11:17:10;13.90;;;6.88;;
35442;SDS011;21561;55.654;37.592;2022-07-25T11:19:42;14.52;;;6.90;;
35442;SDS011;21561;55.654;37.592;2022-07-25T11:22:10;16.55;;;6.65;;
35442;SDS011;21561;55.654;37.592;2022-07-25T11:24:42;14.05;;;6.70;;
35442;SDS011;21561;55.654;37.592;2022-07-25T11:27:10;13.27;;;7.07;;
35442;SDS011;21561;55.654;37.592;2022-07-25T11:29:51;12.90;;;6.88;;
35442;SDS011;21561;55.654;37.592;2022-07-25T11:32:19;12.88;;;6.80;;
35442;SDS011;21561;55.654;37.592;2022-07-25T11:34:47;15.38;;;7.03;;
35442;SDS011;21561;55.654;37.592;2022-07-25T11:37:17;11.83;;;6.57;;
35442;SDS011;21561;55.654;37.592;2022-07-25T11:39:45;14.82;;;6.90;;
35442;SDS011;21561;55.654;37.592;2022-07-25T11:42:14;15.30;;;6.72;;
35442;SDS011;21561;55.654;37.592;2022-07-25T11:47:23;15.15;;;7.10;;
35442;SDS011;21561;55.654;37.592;2022-07-25T11:49:51;14.93;;;7.20;;
35442;SDS011;21561;55.654;37.592;2022-07-25T11:52:24;14.75;;;6.70;;
35442;SDS011;21561;55.654;37.592;2022-07-25T11:57:30;16.05;;;6.88;;
35442;SDS011;21561;55.654;37.592;2022-07-25T12:00:00;13.40;;;6.55;;
35442;SDS011;21561;55.654;37.592;2022-07-25T12:02:29;15.85;;;6.70;;
35442;SDS011;21561;55.654;37.592;2022-07-25T12:04:58;12.82;;;6.68;;
35442;SDS011;21561;55.654;37.592;2022-07-25T12:10:18;14.70;;;7.10;;
35442;SDS011;21561;55.654;37.592;2022-07-25T12:12:49;13.65;;;6.45;;
35442;SDS011;21561;55.654;37.592;2022-07-25T12:15:18;16.67;;;7.15;;
35442;SDS011;21561;55.654;37.592;2022-07-25T12:17:47;14.43;;;7.17;;
35442;SDS011;21561;55.654;37.592;2022-07-25T12:20:15;13.77;;;6.90;;
35442;SDS011;21561;55.654;37.592;2022-07-25T12:22:46;15.75;;;7.00;;
35442;SDS011;21561;55.654;37.592;2022-07-25T12:25:14;17.60;;;6.97;;
35442;SDS011;21561;55.654;37.592;2022-07-25T12:27:41;14.65;;;6.57;;
35442;SDS011;21561;55.654;37.592;2022-07-25T12:30:09;13.68;;;6.53;;
35442;SDS011;21561;55.654;37.592;2022-07-25T12:32:36;16.52;;;6.32;;
35442;SDS011;21561;55.654;37.592;2022-07-25T12:35:04;15.93;;;6.68;;
35442;SDS011;21561;55.654;37.592;2022-07-25T12:37:34;15.60;;;6.35;;
35442;SDS011;21561;55.654;37.592;2022-07-25T12:40:01;13.93;;;6.40;;
35442;SDS011;21561;55.654;37.592;2022-07-25T12:42:29;13.20;;;5.80;;
35442;SDS011;21561;55.654;37.592;2022-07-25T12:44:56;15.77;;;6.20;;
35442;SDS011;21561;55.654;37.592;2022-07-25T12:47:23;13.63;;;5.90;;
35442;SDS011;21561;55.654;37.592;2022-07-25T12:49:50;15.27;;;6.35;;
35442;SDS011;21561;55.654;37.592;2022-07-25T12:52:17;12.48;;;5.80;;
35442;SDS011;21561;55.654;37.592;2022-07-25T12:54:44;15.02;;;6.07;;
35442;SDS011;21561;55.654;37.592;2022-07-25T12:57:12;12.98;;;5.82;;
35442;SDS011;21561;55.654;37.592;2022-07-25T12:59:40;14.20;;;5.68;;
35442;SDS011;21561;55.654;37.592;2022-07-25T13:02:07;12.88;;;5.53;;
35442;SDS011;21561;55.654;37.592;2022-07-25T13:04:34;12.60;;;5.50;;
35442;SDS011;21561;55.654;37.592;2022-07-25T13:07:01;15.00;;;5.40;;
35442;SDS011;21561;55.654;37.592;2022-07-25T13:09:29;12.90;;;5.50;;
35442;SDS011;21561;55.654;37.592;2022-07-25T13:11:56;11.80;;;5.70;;
35442;SDS011;21561;55.654;37.592;2022-07-25T13:14:23;16.23;;;5.45;;
35442;SDS011;21561;55.654;37.592;2022-07-25T13:16:50;12.18;;;5.45;;
35442;SDS011;21561;55.654;37.592;2022-07-25T13:19:18;12.23;;;5.40;;
35442;SDS011;21561;55.654;37.592;2022-07-25T13:21:44;13.18;;;5.85;;
35442;SDS011;21561;55.654;37.592;2022-07-25T13:24:11;12.32;;;5.20;;
35442;SDS011;21561;55.654;37.592;2022-07-25T13:26:39;12.80;;;5.45;;
35442;SDS011;21561;55.654;37.592;2022-07-25T13:29:06;13.88;;;5.35;;
35442;SDS011;21561;55.654;37.592;2022-07-25T13:31:35;14.32;;;5.47;;
35442;SDS011;21561;55.654;37.592;2022-07-25T13:34:04;16.65;;;5.70;;
35442;SDS011;21561;55.654;37.592;2022-07-25T13:36:32;11.15;;;5.40;;
35442;SDS011;21561;55.654;37.592;2022-07-25T13:39:00;18.00;;;5.55;;
35442;SDS011;21561;55.654;37.592;2022-07-25T13:41:27;13.70;;;5.47;;
35442;SDS011;21561;55.654;37.592;2022-07-25T13:43:55;11.50;;;5.43;;
35442;SDS011;21561;55.654;37.592;2022-07-25T13:46:23;14.50;;;5.40;;
35442;SDS011;21561;55.654;37.592;2022-07-25T13:48:50;13.55;;;5.32;;
35442;SDS011;21561;55.654;37.592;2022-07-25T13:51:17;13.80;;;5.75;;
35442;SDS011;21561;55.654;37.592;2022-07-25T13:53:43;11.48;;;5.30;;
35442;SDS011;21561;55.654;37.592;2022-07-25T13:56:10;13.73;;;5.40;;
35442;SDS011;21561;55.654;37.592;2022-07-25T13:58:39;11.38;;;4.80;;
35442;SDS011;21561;55.654;37.592;2022-07-25T14:01:06;11.98;;;4.97;;
35442;SDS011;21561;55.654;37.592;2022-07-25T14:03:35;13.43;;;5.20;;
35442;SDS011;21561;55.654;37.592;2022-07-25T14:06:07;12.07;;;4.80;;
35442;SDS011;21561;55.654;37.592;2022-07-25T14:08:37;10.60;;;4.65;;
35442;SDS011;21561;55.654;37.592;2022-07-25T14:11:06;11.15;;;5.25;;
35442;SDS011;21561;55.654;37.592;2022-07-25T14:13:34;15.00;;;5.13;;
35442;SDS011;21561;55.654;37.592;2022-07-25T14:16:01;9.77;;;4.75;;
35442;SDS011;21561;55.654;37.592;2022-07-25T14:18:28;14.32;;;5.30;;
35442;SDS011;21561;55.654;37.592;2022-07-25T14:20:57;14.48;;;5.20;;
35442;SDS011;21561;55.654;37.592;2022-07-25T14:23:25;13.25;;;5.40;;
35442;SDS011;21561;55.654;37.592;2022-07-25T14:25:56;15.38;;;5.97;;
35442;SDS011;21561;55.654;37.592;2022-07-25T14:28:24;12.98;;;5.05;;
35442;SDS011;21561;55.654;37.592;2022-07-25T14:30:51;11.93;;;5.60;;
35442;SDS011;21561;55.654;37.592;2022-07-25T14:33:18;11.90;;;5.35;;
35442;SDS011;21561;55.654;37.592;2022-07-25T14:35:44;13.73;;;5.60;;
35442;SDS011;21561;55.654;37.592;2022-07-25T14:38:11;15.68;;;5.55;;
35442;SDS011;21561;55.654;37.592;2022-07-25T14:40:40;11.52;;;4.97;;
35442;SDS011;21561;55.654;37.592;2022-07-25T14:43:07;11.50;;;4.80;;
35442;SDS011;21561;55.654;37.592;2022-07-25T14:45:34;12.73;;;4.80;;
35442;SDS011;21561;55.654;37.592;2022-07-25T14:48:09;15.55;;;5.20;;